Showamaru No.1 — JK5504 — position and weather

sailwx.info

Track history (hours):
 
Tides and Currents Weather Stations Pressure Air Temp Water Temp Dewpoint Dewpoint Depression Visibility Wind Speed Wind Dir Waves Ship Positions

Showamaru No.1

Last reported at 2018-Feb-21 04:19 UTC. Time now 2018-Feb-21 09:18 UTC.
Position N 34°46' E 136°58'.

Length 74 m.

Type: Cargo ship. MMSI: 431400585.

Date/timePositionNaut miles runAvg speedWind from/ knotsBaromVisibWave heightAir tempDewpointWater temp
2018-Feb-21 04:19N 34°46' E 136°58'5 0.9
2018-Feb-20 22:59N 34°51' E 136°56'0 0.2
2018-Feb-20 21:08N 34°50' E 136°56'270 6.1
2018-Feb-19 00:42N 33°41' E 131°40'210.7
2018-Feb-19 00:29N 33°42' E 131°38'5 9.9
2018-Feb-19 00:00N 33°43' E 131°32'510.5
2018-Feb-18 23:30N 33°46' E 131°27'510.7
2018-Feb-18 23:00N 33°48' E 131°21'1 1.7
2018-Feb-18 22:27N 33°48' E 131°20'0 0.6
2018-Feb-18 22:00N 33°48' E 131°19'4 8.2
2018-Feb-18 21:30N 33°50' E 131°15'510.0
2018-Feb-18 21:00N 33°55' E 131°12'2 3.8
2018-Feb-18 20:23N 33°57' E 131°13'0 0.0
2018-Feb-18 19:59N 33°57' E 131°13'0 0.0
2018-Feb-18 19:29N 33°57' E 131°13'0 0.0
2018-Feb-18 18:59N 33°57' E 131°13'1 2.4
2018-Feb-18 18:30N 33°56' E 131°13'1 2.1
2018-Feb-18 17:58N 33°54' E 131°13'0 0.0
2018-Feb-18 17:28N 33°54' E 131°13'0 0.0
2018-Feb-18 16:58N 33°54' E 131°13'0 0.0
2018-Feb-18 16:28N 33°54' E 131°13'0 0.0
2018-Feb-18 15:58N 33°54' E 131°13'0 0.0
2018-Feb-18 15:28N 33°54' E 131°13'0 0.0
2018-Feb-18 14:58N 33°54' E 131°13'0 0.0
2018-Feb-18 14:28N 33°54' E 131°13'0 0.0
2018-Feb-18 13:58N 33°54' E 131°13'0 0.0
2018-Feb-18 13:28N 33°54' E 131°13'0 0.1
2018-Feb-18 12:58N 33°55' E 131°13'0 0.1
2018-Feb-18 12:28N 33°55' E 131°13'0 0.5
2018-Feb-18 12:00N 33°54' E 131°13'5 9.7
2018-Feb-18 11:30N 33°52' E 131°18'713.1
2018-Feb-18 11:00N 33°50' E 131°26'613.0
2018-Feb-18 10:30N 33°49' E 131°33'16810.7
2018-Feb-17 18:46N 33°58' E 134°56'112 7.5
2018-Feb-17 03:54N 34°44' E 136°59'4 9.7
2018-Feb-17 03:30N 34°48' E 136°57'3 0.5
2018-Feb-16 22:02N 34°51' E 136°56'0 0.0
2018-Feb-16 21:44N 34°51' E 136°56'271 8.3
2018-Feb-15 13:07N 33°41' E 131°40'113.4
2018-Feb-15 13:00N 33°42' E 131°38'611.9
2018-Feb-15 12:30N 33°44' E 131°32'611.6
2018-Feb-15 12:00N 33°46' E 131°25'611.5
2018-Feb-15 11:30N 33°48' E 131°19'511.0
2018-Feb-15 11:00N 33°51' E 131°13'4 8.7
2018-Feb-15 10:30N 33°55' E 131°13'2 3.0
2018-Feb-15 09:59N 33°57' E 131°13'0 0.0
2018-Feb-15 09:29N 33°57' E 131°13'0 0.0
2018-Feb-15 08:59N 33°57' E 131°13'0 0.0
2018-Feb-15 08:29N 33°57' E 131°13'1 1.8
2018-Feb-15 08:00N 33°56' E 131°13'1 1.4
2018-Feb-15 07:30N 33°55' E 131°13'0 0.1
2018-Feb-15 07:00N 33°55' E 131°13'0 0.0
2018-Feb-15 06:24N 33°55' E 131°13'0 0.0
2018-Feb-15 06:00N 33°55' E 131°13'0 0.5
2018-Feb-15 05:30N 33°55' E 131°13'1 1.3
2018-Feb-15 04:58N 33°56' E 131°14'0 0.0
2018-Feb-15 04:28N 33°56' E 131°14'2 5.1
2018-Feb-15 04:00N 33°54' E 131°14'1 1.0
2018-Feb-15 03:27N 33°53' E 131°14'0 0.0
2018-Feb-15 03:00N 33°53' E 131°14'0 0.3
2018-Feb-15 02:30N 33°53' E 131°14'510.6
2018-Feb-15 02:00N 33°51' E 131°20'612.0
2018-Feb-15 01:29N 33°50' E 131°27'611.9
2018-Feb-15 01:00N 33°49' E 131°34'14410.8
2018-Feb-14 11:43N 34°26' E 134°22'512.1
2018-Feb-14 11:21N 34°28' E 134°27'412.2
2018-Feb-14 11:00N 34°31' E 134°31'612.0
2018-Feb-14 10:30N 34°35' E 134°36'10 0.5
2018-Feb-13 15:01N 34°45' E 134°38'0 0.0
2018-Feb-13 03:55N 34°45' E 134°38'18 0.6
2018-Feb-11 22:10N 34°26' E 134°36'510.3
2018-Feb-11 21:43N 34°22' E 134°37'1711.5
2018-Feb-11 20:16N 34°07' E 134°45'510.1
2018-Feb-11 19:46N 34°02' E 134°48'311.6
2018-Feb-11 19:28N 34°05' E 134°46'1 1.6
2018-Feb-11 18:53N 34°06' E 134°47'711.4
2018-Feb-11 18:16N 34°03' E 134°54'611.4
2018-Feb-11 17:42N 33°60' E 135°01'  
Track history (hours):
 
Tides and Currents Weather Stations Pressure Air Temp Water Temp Dewpoint Dewpoint Depression Visibility Wind Speed Wind Dir Waves Ship Positions

Showamaru No.1

Last reported at 2018-Feb-21 04:19 UTC. Time now 2018-Feb-21 09:18 UTC.
Position N 34°46' E 136°58'.

Length 74 m.

Type: Cargo ship. MMSI: 431400585.

Date/timePositionNaut miles runAvg speedWind from/ knotsBaromVisibWave heightAir tempDewpointWater temp
2018-Feb-21 04:19N 34°46' E 136°58'5 0.9
2018-Feb-20 22:59N 34°51' E 136°56'0 0.2
2018-Feb-20 21:08N 34°50' E 136°56'270 6.1
2018-Feb-19 00:42N 33°41' E 131°40'210.7
2018-Feb-19 00:29N 33°42' E 131°38'5 9.9
2018-Feb-19 00:00N 33°43' E 131°32'510.5
2018-Feb-18 23:30N 33°46' E 131°27'510.7
2018-Feb-18 23:00N 33°48' E 131°21'1 1.7
2018-Feb-18 22:27N 33°48' E 131°20'0 0.6
2018-Feb-18 22:00N 33°48' E 131°19'4 8.2
2018-Feb-18 21:30N 33°50' E 131°15'510.0
2018-Feb-18 21:00N 33°55' E 131°12'2 3.8
2018-Feb-18 20:23N 33°57' E 131°13'0 0.0
2018-Feb-18 19:59N 33°57' E 131°13'0 0.0
2018-Feb-18 19:29N 33°57' E 131°13'0 0.0
2018-Feb-18 18:59N 33°57' E 131°13'1 2.4
2018-Feb-18 18:30N 33°56' E 131°13'1 2.1
2018-Feb-18 17:58N 33°54' E 131°13'0 0.0
2018-Feb-18 17:28N 33°54' E 131°13'0 0.0
2018-Feb-18 16:58N 33°54' E 131°13'0 0.0
2018-Feb-18 16:28N 33°54' E 131°13'0 0.0
2018-Feb-18 15:58N 33°54' E 131°13'0 0.0
2018-Feb-18 15:28N 33°54' E 131°13'0 0.0
2018-Feb-18 14:58N 33°54' E 131°13'0 0.0
2018-Feb-18 14:28N 33°54' E 131°13'0 0.0
2018-Feb-18 13:58N 33°54' E 131°13'0 0.0
2018-Feb-18 13:28N 33°54' E 131°13'0 0.1
2018-Feb-18 12:58N 33°55' E 131°13'0 0.1
2018-Feb-18 12:28N 33°55' E 131°13'0 0.5
2018-Feb-18 12:00N 33°54' E 131°13'5 9.7
2018-Feb-18 11:30N 33°52' E 131°18'713.1
2018-Feb-18 11:00N 33°50' E 131°26'613.0
2018-Feb-18 10:30N 33°49' E 131°33'16810.7
2018-Feb-17 18:46N 33°58' E 134°56'112 7.5
2018-Feb-17 03:54N 34°44' E 136°59'4 9.7
2018-Feb-17 03:30N 34°48' E 136°57'3 0.5
2018-Feb-16 22:02N 34°51' E 136°56'0 0.0
2018-Feb-16 21:44N 34°51' E 136°56'271 8.3
2018-Feb-15 13:07N 33°41' E 131°40'113.4
2018-Feb-15 13:00N 33°42' E 131°38'611.9
2018-Feb-15 12:30N 33°44' E 131°32'611.6
2018-Feb-15 12:00N 33°46' E 131°25'611.5
2018-Feb-15 11:30N 33°48' E 131°19'511.0
2018-Feb-15 11:00N 33°51' E 131°13'4 8.7
2018-Feb-15 10:30N 33°55' E 131°13'2 3.0
2018-Feb-15 09:59N 33°57' E 131°13'0 0.0
2018-Feb-15 09:29N 33°57' E 131°13'0 0.0
2018-Feb-15 08:59N 33°57' E 131°13'0 0.0
2018-Feb-15 08:29N 33°57' E 131°13'1 1.8
2018-Feb-15 08:00N 33°56' E 131°13'1 1.4
2018-Feb-15 07:30N 33°55' E 131°13'0 0.1
2018-Feb-15 07:00N 33°55' E 131°13'0 0.0
2018-Feb-15 06:24N 33°55' E 131°13'0 0.0
2018-Feb-15 06:00N 33°55' E 131°13'0 0.5
2018-Feb-15 05:30N 33°55' E 131°13'1 1.3
2018-Feb-15 04:58N 33°56' E 131°14'0 0.0
2018-Feb-15 04:28N 33°56' E 131°14'2 5.1
2018-Feb-15 04:00N 33°54' E 131°14'1 1.0
2018-Feb-15 03:27N 33°53' E 131°14'0 0.0
2018-Feb-15 03:00N 33°53' E 131°14'0 0.3
2018-Feb-15 02:30N 33°53' E 131°14'510.6
2018-Feb-15 02:00N 33°51' E 131°20'612.0
2018-Feb-15 01:29N 33°50' E 131°27'611.9
2018-Feb-15 01:00N 33°49' E 131°34'14410.8
2018-Feb-14 11:43N 34°26' E 134°22'512.1
2018-Feb-14 11:21N 34°28' E 134°27'412.2
2018-Feb-14 11:00N 34°31' E 134°31'612.0
2018-Feb-14 10:30N 34°35' E 134°36'10 0.5
2018-Feb-13 15:01N 34°45' E 134°38'0 0.0
2018-Feb-13 03:55N 34°45' E 134°38'18 0.6
2018-Feb-11 22:10N 34°26' E 134°36'510.3
2018-Feb-11 21:43N 34°22' E 134°37'1711.5
2018-Feb-11 20:16N 34°07' E 134°45'510.1
2018-Feb-11 19:46N 34°02' E 134°48'311.6
2018-Feb-11 19:28N 34°05' E 134°46'1 1.6
2018-Feb-11 18:53N 34°06' E 134°47'711.4
2018-Feb-11 18:16N 34°03' E 134°54'611.4
2018-Feb-11 17:42N 33°60' E 135°01'  

Dump ship's entire track history